sensor_id;sensor_type;location;lat;lon;timestamp;temperature;humidity
26954;DHT22;14508;50.924;11.600;2022-09-21T00:01:22;7.30;99.90
26954;DHT22;14508;50.924;11.600;2022-09-21T00:03:51;7.30;99.90
26954;DHT22;14508;50.924;11.600;2022-09-21T00:06:19;7.30;99.90
26954;DHT22;14508;50.924;11.600;2022-09-21T00:08:47;7.30;99.90
26954;DHT22;14508;50.924;11.600;2022-09-21T00:11:17;7.30;99.90
26954;DHT22;14508;50.924;11.600;2022-09-21T00:13:44;7.30;99.90
26954;DHT22;14508;50.924;11.600;2022-09-21T00:16:14;7.30;99.90
26954;DHT22;14508;50.924;11.600;2022-09-21T00:18:41;7.30;99.90
26954;DHT22;14508;50.924;11.600;2022-09-21T00:21:09;7.30;99.90
26954;DHT22;14508;50.924;11.600;2022-09-21T00:23:36;7.30;99.90
26954;DHT22;14508;50.924;11.600;2022-09-21T00:26:05;7.30;99.90
26954;DHT22;14508;50.924;11.600;2022-09-21T00:28:32;7.30;99.90
26954;DHT22;14508;50.924;11.600;2022-09-21T00:31:01;7.30;99.90
26954;DHT22;14508;50.924;11.600;2022-09-21T00:33:29;7.20;99.90
26954;DHT22;14508;50.924;11.600;2022-09-21T00:36:01;7.20;99.90
26954;DHT22;14508;50.924;11.600;2022-09-21T00:38:29;7.20;99.90
26954;DHT22;14508;50.924;11.600;2022-09-21T00:40:56;7.20;99.90
26954;DHT22;14508;50.924;11.600;2022-09-21T00:43:22;7.20;99.90
26954;DHT22;14508;50.924;11.600;2022-09-21T00:45:50;7.20;99.90
26954;DHT22;14508;50.924;11.600;2022-09-21T00:48:20;7.20;99.90
26954;DHT22;14508;50.924;11.600;2022-09-21T00:50:51;7.20;99.90
26954;DHT22;14508;50.924;11.600;2022-09-21T00:53:20;7.20;99.90
26954;DHT22;14508;50.924;11.600;2022-09-21T00:55:49;7.20;99.90
26954;DHT22;14508;50.924;11.600;2022-09-21T00:58:27;7.20;99.90
26954;DHT22;14508;50.924;11.600;2022-09-21T01:00:57;7.20;99.90
26954;DHT22;14508;50.924;11.600;2022-09-21T01:03:26;7.20;99.90
26954;DHT22;14508;50.924;11.600;2022-09-21T01:05:55;7.20;99.90
26954;DHT22;14508;50.924;11.600;2022-09-21T01:08:23;7.20;99.90
26954;DHT22;14508;50.924;11.600;2022-09-21T01:11:05;7.20;99.90
26954;DHT22;14508;50.924;11.600;2022-09-21T01:13:44;7.20;99.90
26954;DHT22;14508;50.924;11.600;2022-09-21T01:16:15;7.20;99.90
26954;DHT22;14508;50.924;11.600;2022-09-21T01:18:47;7.20;99.90
26954;DHT22;14508;50.924;11.600;2022-09-21T01:21:20;7.20;99.90
26954;DHT22;14508;50.924;11.600;2022-09-21T01:24:32;7.20;99.90
26954;DHT22;14508;50.924;11.600;2022-09-21T01:27:25;7.20;99.90
26954;DHT22;14508;50.924;11.600;2022-09-21T01:29:59;7.20;99.90
26954;DHT22;14508;50.924;11.600;2022-09-21T01:32:31;7.20;99.90
26954;DHT22;14508;50.924;11.600;2022-09-21T01:35:02;7.30;99.90
26954;DHT22;14508;50.924;11.600;2022-09-21T01:37:36;7.30;99.90
26954;DHT22;14508;50.924;11.600;2022-09-21T01:40:08;7.30;99.90
26954;DHT22;14508;50.924;11.600;2022-09-21T01:42:37;7.30;99.90
26954;DHT22;14508;50.924;11.600;2022-09-21T01:45:08;7.20;99.90
26954;DHT22;14508;50.924;11.600;2022-09-21T01:47:38;7.20;99.90
26954;DHT22;14508;50.924;11.600;2022-09-21T01:50:09;7.30;99.90
26954;DHT22;14508;50.924;11.600;2022-09-21T01:52:41;7.20;99.90
26954;DHT22;14508;50.924;11.600;2022-09-21T01:55:14;7.30;99.90
26954;DHT22;14508;50.924;11.600;2022-09-21T01:57:48;7.20;99.90
26954;DHT22;14508;50.924;11.600;2022-09-21T02:00:19;7.20;99.90
26954;DHT22;14508;50.924;11.600;2022-09-21T02:02:49;7.20;99.90
26954;DHT22;14508;50.924;11.600;2022-09-21T02:05:18;7.20;99.90
26954;DHT22;14508;50.924;11.600;2022-09-21T02:07:47;7.20;99.90
26954;DHT22;14508;50.924;11.600;2022-09-21T02:10:18;7.20;99.90
26954;DHT22;14508;50.924;11.600;2022-09-21T02:12:48;7.20;99.90
26954;DHT22;14508;50.924;11.600;2022-09-21T02:15:23;7.10;99.90
26954;DHT22;14508;50.924;11.600;2022-09-21T02:18:03;7.10;99.90
26954;DHT22;14508;50.924;11.600;2022-09-21T02:20:35;7.20;99.90
26954;DHT22;14508;50.924;11.600;2022-09-21T02:23:09;7.20;99.90
26954;DHT22;14508;50.924;11.600;2022-09-21T02:25:43;7.20;99.90
26954;DHT22;14508;50.924;11.600;2022-09-21T02:28:17;7.20;99.90
26954;DHT22;14508;50.924;11.600;2022-09-21T02:30:52;7.20;99.90
26954;DHT22;14508;50.924;11.600;2022-09-21T02:33:25;7.10;99.90
26954;DHT22;14508;50.924;11.600;2022-09-21T02:35:57;7.10;99.90
26954;DHT22;14508;50.924;11.600;2022-09-21T02:38:32;7.10;99.90
26954;DHT22;14508;50.924;11.600;2022-09-21T02:41:05;7.10;99.90
26954;DHT22;14508;50.924;11.600;2022-09-21T02:43:36;7.10;99.90
26954;DHT22;14508;50.924;11.600;2022-09-21T02:46:10;7.10;99.90
26954;DHT22;14508;50.924;11.600;2022-09-21T02:48:43;7.10;99.90
26954;DHT22;14508;50.924;11.600;2022-09-21T02:51:14;7.00;99.90
26954;DHT22;14508;50.924;11.600;2022-09-21T02:53:43;7.00;99.90
26954;DHT22;14508;50.924;11.600;2022-09-21T02:56:12;7.00;99.90
26954;DHT22;14508;50.924;11.600;2022-09-21T02:58:44;7.00;99.90
26954;DHT22;14508;50.924;11.600;2022-09-21T03:01:13;7.00;99.90
26954;DHT22;14508;50.924;11.600;2022-09-21T03:03:40;6.90;99.90
26954;DHT22;14508;50.924;11.600;2022-09-21T03:06:07;6.90;99.90
26954;DHT22;14508;50.924;11.600;2022-09-21T03:08:34;6.90;99.90
26954;DHT22;14508;50.924;11.600;2022-09-21T03:11:01;6.90;99.90
26954;DHT22;14508;50.924;11.600;2022-09-21T03:13:28;6.90;99.90
26954;DHT22;14508;50.924;11.600;2022-09-21T03:15:58;6.90;99.90
26954;DHT22;14508;50.924;11.600;2022-09-21T03:18:28;6.90;99.90
26954;DHT22;14508;50.924;11.600;2022-09-21T03:20:54;6.90;99.90
26954;DHT22;14508;50.924;11.600;2022-09-21T03:23:21;6.90;99.90
26954;DHT22;14508;50.924;11.600;2022-09-21T03:25:48;6.90;99.90
26954;DHT22;14508;50.924;11.600;2022-09-21T03:28:17;6.90;99.90
26954;DHT22;14508;50.924;11.600;2022-09-21T03:30:44;6.90;99.90
26954;DHT22;14508;50.924;11.600;2022-09-21T03:33:11;6.90;99.90
26954;DHT22;14508;50.924;11.600;2022-09-21T03:35:39;6.90;99.90
26954;DHT22;14508;50.924;11.600;2022-09-21T03:38:07;6.90;99.90
26954;DHT22;14508;50.924;11.600;2022-09-21T03:40:34;6.90;99.90
26954;DHT22;14508;50.924;11.600;2022-09-21T03:43:01;6.80;99.90
26954;DHT22;14508;50.924;11.600;2022-09-21T03:45:28;6.80;99.90
26954;DHT22;14508;50.924;11.600;2022-09-21T03:47:55;6.80;99.90
26954;DHT22;14508;50.924;11.600;2022-09-21T03:50:24;6.80;99.90
26954;DHT22;14508;50.924;11.600;2022-09-21T03:52:54;6.80;99.90
26954;DHT22;14508;50.924;11.600;2022-09-21T03:55:21;6.80;99.90
26954;DHT22;14508;50.924;11.600;2022-09-21T03:57:48;6.80;99.90
26954;DHT22;14508;50.924;11.600;2022-09-21T04:00:15;6.80;99.90
26954;DHT22;14508;50.924;11.600;2022-09-21T04:02:42;6.80;99.90
26954;DHT22;14508;50.924;11.600;2022-09-21T04:05:11;6.80;99.90
26954;DHT22;14508;50.924;11.600;2022-09-21T04:07:39;6.80;99.90
26954;DHT22;14508;50.924;11.600;2022-09-21T04:10:11;6.80;99.90
26954;DHT22;14508;50.924;11.600;2022-09-21T04:12:38;6.80;99.90
26954;DHT22;14508;50.924;11.600;2022-09-21T04:15:09;6.80;99.90
26954;DHT22;14508;50.924;11.600;2022-09-21T04:17:36;6.70;99.90
26954;DHT22;14508;50.924;11.600;2022-09-21T04:20:04;6.70;99.90
26954;DHT22;14508;50.924;11.600;2022-09-21T04:22:31;6.80;99.90
26954;DHT22;14508;50.924;11.600;2022-09-21T04:24:57;6.70;99.90
26954;DHT22;14508;50.924;11.600;2022-09-21T04:27:27;6.80;99.90
26954;DHT22;14508;50.924;11.600;2022-09-21T04:29:54;6.70;99.90
26954;DHT22;14508;50.924;11.600;2022-09-21T04:32:20;6.80;99.90
26954;DHT22;14508;50.924;11.600;2022-09-21T04:34:47;6.80;99.90
26954;DHT22;14508;50.924;11.600;2022-09-21T04:37:14;6.80;99.90
26954;DHT22;14508;50.924;11.600;2022-09-21T04:39:40;6.80;99.90
26954;DHT22;14508;50.924;11.600;2022-09-21T04:42:08;6.80;99.90
26954;DHT22;14508;50.924;11.600;2022-09-21T04:44:36;6.80;99.90
26954;DHT22;14508;50.924;11.600;2022-09-21T04:47:03;6.80;99.90
26954;DHT22;14508;50.924;11.600;2022-09-21T04:49:30;6.80;99.90
26954;DHT22;14508;50.924;11.600;2022-09-21T04:51:57;6.80;99.90
26954;DHT22;14508;50.924;11.600;2022-09-21T04:54:23;6.80;99.90
26954;DHT22;14508;50.924;11.600;2022-09-21T04:56:50;6.80;99.90
26954;DHT22;14508;50.924;11.600;2022-09-21T04:59:17;6.80;99.90
26954;DHT22;14508;50.924;11.600;2022-09-21T05:01:45;6.70;99.90
26954;DHT22;14508;50.924;11.600;2022-09-21T05:04:11;6.70;99.90
26954;DHT22;14508;50.924;11.600;2022-09-21T05:06:38;6.70;99.90
26954;DHT22;14508;50.924;11.600;2022-09-21T05:09:05;6.70;99.90
26954;DHT22;14508;50.924;11.600;2022-09-21T05:12:04;6.70;99.90
26954;DHT22;14508;50.924;11.600;2022-09-21T05:14:31;6.70;99.90
26954;DHT22;14508;50.924;11.600;2022-09-21T05:16:59;6.70;99.90
26954;DHT22;14508;50.924;11.600;2022-09-21T05:19:26;6.70;99.90
26954;DHT22;14508;50.924;11.600;2022-09-21T05:21:52;6.80;99.90
26954;DHT22;14508;50.924;11.600;2022-09-21T05:24:19;6.80;99.90
26954;DHT22;14508;50.924;11.600;2022-09-21T05:26:46;6.80;99.90
26954;DHT22;14508;50.924;11.600;2022-09-21T05:29:13;6.80;99.90
26954;DHT22;14508;50.924;11.600;2022-09-21T05:31:44;6.90;99.90
26954;DHT22;14508;50.924;11.600;2022-09-21T05:34:27;6.90;99.90
26954;DHT22;14508;50.924;11.600;2022-09-21T05:36:59;6.90;99.90
26954;DHT22;14508;50.924;11.600;2022-09-21T05:39:27;6.90;99.90
26954;DHT22;14508;50.924;11.600;2022-09-21T05:41:54;6.90;99.90
26954;DHT22;14508;50.924;11.600;2022-09-21T05:44:22;7.00;99.90
26954;DHT22;14508;50.924;11.600;2022-09-21T05:46:53;6.90;99.90
26954;DHT22;14508;50.924;11.600;2022-09-21T05:49:33;7.00;99.90
26954;DHT22;14508;50.924;11.600;2022-09-21T05:52:08;7.00;99.90
26954;DHT22;14508;50.924;11.600;2022-09-21T05:54:47;7.10;99.90
26954;DHT22;14508;50.924;11.600;2022-09-21T05:57:21;7.10;99.90
26954;DHT22;14508;50.924;11.600;2022-09-21T05:59:57;7.10;99.90
26954;DHT22;14508;50.924;11.600;2022-09-21T06:02:41;7.10;99.90
26954;DHT22;14508;50.924;11.600;2022-09-21T06:05:12;7.20;99.90
26954;DHT22;14508;50.924;11.600;2022-09-21T06:07:39;7.20;99.90
26954;DHT22;14508;50.924;11.600;2022-09-21T06:10:07;7.30;99.90
26954;DHT22;14508;50.924;11.600;2022-09-21T06:12:34;7.30;99.90
26954;DHT22;14508;50.924;11.600;2022-09-21T06:15:01;7.30;99.90
26954;DHT22;14508;50.924;11.600;2022-09-21T06:17:28;7.40;99.90
26954;DHT22;14508;50.924;11.600;2022-09-21T06:19:54;7.40;99.90
26954;DHT22;14508;50.924;11.600;2022-09-21T06:22:22;7.50;99.90
26954;DHT22;14508;50.924;11.600;2022-09-21T06:24:49;7.50;99.90
26954;DHT22;14508;50.924;11.600;2022-09-21T06:27:16;7.60;99.90
26954;DHT22;14508;50.924;11.600;2022-09-21T06:29:42;7.60;99.90
26954;DHT22;14508;50.924;11.600;2022-09-21T06:32:09;7.70;99.90
26954;DHT22;14508;50.924;11.600;2022-09-21T06:34:36;7.80;99.90
26954;DHT22;14508;50.924;11.600;2022-09-21T06:37:03;7.80;99.90
26954;DHT22;14508;50.924;11.600;2022-09-21T06:39:31;7.90;99.90
26954;DHT22;14508;50.924;11.600;2022-09-21T06:41:58;7.90;99.90
26954;DHT22;14508;50.924;11.600;2022-09-21T06:44:25;7.90;99.90
26954;DHT22;14508;50.924;11.600;2022-09-21T06:46:54;8.00;99.90
26954;DHT22;14508;50.924;11.600;2022-09-21T06:49:20;8.10;99.90
26954;DHT22;14508;50.924;11.600;2022-09-21T06:51:47;8.10;99.90
26954;DHT22;14508;50.924;11.600;2022-09-21T06:54:14;8.10;99.90
26954;DHT22;14508;50.924;11.600;2022-09-21T06:56:43;8.10;99.90
26954;DHT22;14508;50.924;11.600;2022-09-21T06:59:09;8.10;99.90
26954;DHT22;14508;50.924;11.600;2022-09-21T07:01:36;8.10;99.90
26954;DHT22;14508;50.924;11.600;2022-09-21T07:04:03;8.00;99.90
26954;DHT22;14508;50.924;11.600;2022-09-21T07:06:31;8.00;99.90
26954;DHT22;14508;50.924;11.600;2022-09-21T07:08:58;7.90;99.90
26954;DHT22;14508;50.924;11.600;2022-09-21T07:11:25;7.90;99.90
26954;DHT22;14508;50.924;11.600;2022-09-21T07:13:53;7.90;99.90
26954;DHT22;14508;50.924;11.600;2022-09-21T07:16:20;7.90;99.90
26954;DHT22;14508;50.924;11.600;2022-09-21T07:18:47;7.90;99.90
26954;DHT22;14508;50.924;11.600;2022-09-21T07:21:14;7.90;99.90
26954;DHT22;14508;50.924;11.600;2022-09-21T07:23:41;7.90;99.90
26954;DHT22;14508;50.924;11.600;2022-09-21T07:26:10;7.90;99.90
26954;DHT22;14508;50.924;11.600;2022-09-21T07:28:37;8.00;99.90
26954;DHT22;14508;50.924;11.600;2022-09-21T07:31:10;8.10;99.90
26954;DHT22;14508;50.924;11.600;2022-09-21T07:33:38;8.10;99.90
26954;DHT22;14508;50.924;11.600;2022-09-21T07:36:05;8.20;99.90
26954;DHT22;14508;50.924;11.600;2022-09-21T07:38:35;8.30;99.90
26954;DHT22;14508;50.924;11.600;2022-09-21T07:41:02;8.40;99.90
26954;DHT22;14508;50.924;11.600;2022-09-21T07:43:29;8.50;99.90
26954;DHT22;14508;50.924;11.600;2022-09-21T07:45:56;8.50;99.90
26954;DHT22;14508;50.924;11.600;2022-09-21T07:48:24;8.50;99.90
26954;DHT22;14508;50.924;11.600;2022-09-21T07:50:51;8.50;99.90
26954;DHT22;14508;50.924;11.600;2022-09-21T07:53:18;8.60;99.90
26954;DHT22;14508;50.924;11.600;2022-09-21T07:55:45;8.60;99.90
26954;DHT22;14508;50.924;11.600;2022-09-21T07:58:12;8.70;99.90
26954;DHT22;14508;50.924;11.600;2022-09-21T08:00:56;8.80;99.90
26954;DHT22;14508;50.924;11.600;2022-09-21T08:03:25;8.90;99.90
26954;DHT22;14508;50.924;11.600;2022-09-21T08:05:51;8.90;99.90
26954;DHT22;14508;50.924;11.600;2022-09-21T08:08:18;9.00;99.90
26954;DHT22;14508;50.924;11.600;2022-09-21T08:10:45;9.00;99.90
26954;DHT22;14508;50.924;11.600;2022-09-21T08:13:11;9.00;99.90
26954;DHT22;14508;50.924;11.600;2022-09-21T08:15:38;9.00;99.90
26954;DHT22;14508;50.924;11.600;2022-09-21T08:18:05;9.20;99.90
26954;DHT22;14508;50.924;11.600;2022-09-21T08:20:34;9.20;99.90
26954;DHT22;14508;50.924;11.600;2022-09-21T08:23:00;9.30;99.90
26954;DHT22;14508;50.924;11.600;2022-09-21T08:25:27;9.40;99.90
26954;DHT22;14508;50.924;11.600;2022-09-21T08:27:57;9.40;99.90
26954;DHT22;14508;50.924;11.600;2022-09-21T08:30:24;9.40;99.90
26954;DHT22;14508;50.924;11.600;2022-09-21T08:32:53;9.50;99.90
26954;DHT22;14508;50.924;11.600;2022-09-21T08:35:20;9.60;99.90
26954;DHT22;14508;50.924;11.600;2022-09-21T08:37:48;9.60;99.90
26954;DHT22;14508;50.924;11.600;2022-09-21T08:40:18;9.70;99.90
26954;DHT22;14508;50.924;11.600;2022-09-21T08:42:51;9.80;99.90
26954;DHT22;14508;50.924;11.600;2022-09-21T08:45:21;9.90;99.90
26954;DHT22;14508;50.924;11.600;2022-09-21T08:47:53;9.90;99.90
26954;DHT22;14508;50.924;11.600;2022-09-21T08:50:34;10.00;99.90
26954;DHT22;14508;50.924;11.600;2022-09-21T08:53:07;10.20;99.90
26954;DHT22;14508;50.924;11.600;2022-09-21T08:55:36;10.40;99.90
26954;DHT22;14508;50.924;11.600;2022-09-21T08:58:04;10.50;99.90
26954;DHT22;14508;50.924;11.600;2022-09-21T09:00:35;10.50;99.90
26954;DHT22;14508;50.924;11.600;2022-09-21T09:03:21;10.50;99.90
26954;DHT22;14508;50.924;11.600;2022-09-21T09:05:55;10.60;99.90
26954;DHT22;14508;50.924;11.600;2022-09-21T09:08:49;10.60;99.90
26954;DHT22;14508;50.924;11.600;2022-09-21T09:11:28;10.70;99.90
26954;DHT22;14508;50.924;11.600;2022-09-21T09:14:13;10.80;99.90
26954;DHT22;14508;50.924;11.600;2022-09-21T09:16:50;10.90;99.90
26954;DHT22;14508;50.924;11.600;2022-09-21T09:19:23;11.00;99.90
26954;DHT22;14508;50.924;11.600;2022-09-21T09:21:54;11.20;99.90
26954;DHT22;14508;50.924;11.600;2022-09-21T09:24:30;11.30;99.90
26954;DHT22;14508;50.924;11.600;2022-09-21T09:27:01;11.50;99.90
26954;DHT22;14508;50.924;11.600;2022-09-21T09:29:36;11.60;99.90
26954;DHT22;14508;50.924;11.600;2022-09-21T09:32:09;11.70;99.90
26954;DHT22;14508;50.924;11.600;2022-09-21T09:34:42;11.90;99.90
26954;DHT22;14508;50.924;11.600;2022-09-21T09:37:13;12.10;99.90
26954;DHT22;14508;50.924;11.600;2022-09-21T09:39:42;12.30;99.90
26954;DHT22;14508;50.924;11.600;2022-09-21T09:42:20;12.40;99.90
26954;DHT22;14508;50.924;11.600;2022-09-21T09:45:19;12.60;99.90
26954;DHT22;14508;50.924;11.600;2022-09-21T09:47:57;12.80;99.90
26954;DHT22;14508;50.924;11.600;2022-09-21T09:50:29;13.00;99.90
26954;DHT22;14508;50.924;11.600;2022-09-21T09:53:01;13.20;99.90
26954;DHT22;14508;50.924;11.600;2022-09-21T09:55:36;13.40;99.90
26954;DHT22;14508;50.924;11.600;2022-09-21T09:58:04;13.60;99.90
26954;DHT22;14508;50.924;11.600;2022-09-21T10:00:32;13.80;99.90
26954;DHT22;14508;50.924;11.600;2022-09-21T10:02:59;13.90;99.90
26954;DHT22;14508;50.924;11.600;2022-09-21T10:05:31;14.10;99.90
26954;DHT22;14508;50.924;11.600;2022-09-21T10:07:58;14.30;99.90
26954;DHT22;14508;50.924;11.600;2022-09-21T10:10:35;14.50;99.90
26954;DHT22;14508;50.924;11.600;2022-09-21T10:13:07;14.70;99.90
26954;DHT22;14508;50.924;11.600;2022-09-21T10:15:40;14.90;99.90
26954;DHT22;14508;50.924;11.600;2022-09-21T10:18:15;15.00;99.90
26954;DHT22;14508;50.924;11.600;2022-09-21T10:20:59;15.10;99.90
26954;DHT22;14508;50.924;11.600;2022-09-21T10:23:27;15.20;99.90
26954;DHT22;14508;50.924;11.600;2022-09-21T10:25:59;15.30;99.90
26954;DHT22;14508;50.924;11.600;2022-09-21T10:28:27;15.40;99.90
26954;DHT22;14508;50.924;11.600;2022-09-21T10:31:15;15.50;99.90
26954;DHT22;14508;50.924;11.600;2022-09-21T10:33:47;15.60;99.90
26954;DHT22;14508;50.924;11.600;2022-09-21T10:36:28;15.80;98.20
26954;DHT22;14508;50.924;11.600;2022-09-21T10:38:56;15.90;96.60
26954;DHT22;14508;50.924;11.600;2022-09-21T10:41:37;16.10;95.10
26954;DHT22;14508;50.924;11.600;2022-09-21T10:44:13;16.30;93.50
26954;DHT22;14508;50.924;11.600;2022-09-21T10:46:41;16.40;90.40
26954;DHT22;14508;50.924;11.600;2022-09-21T10:49:14;16.60;90.20
26954;DHT22;14508;50.924;11.600;2022-09-21T10:51:44;16.70;87.40
26954;DHT22;14508;50.924;11.600;2022-09-21T10:54:16;16.80;83.50
26954;DHT22;14508;50.924;11.600;2022-09-21T10:56:55;16.80;81.90
26954;DHT22;14508;50.924;11.600;2022-09-21T10:59:25;16.80;82.50
26954;DHT22;14508;50.924;11.600;2022-09-21T11:01:54;16.80;81.80
26954;DHT22;14508;50.924;11.600;2022-09-21T11:04:27;16.90;81.10
26954;DHT22;14508;50.924;11.600;2022-09-21T11:07:01;17.00;79.60
26954;DHT22;14508;50.924;11.600;2022-09-21T11:09:34;17.10;78.70
26954;DHT22;14508;50.924;11.600;2022-09-21T11:12:16;17.10;76.60
26954;DHT22;14508;50.924;11.600;2022-09-21T11:14:51;17.30;73.80
26954;DHT22;14508;50.924;11.600;2022-09-21T11:17:35;17.30;69.60
26954;DHT22;14508;50.924;11.600;2022-09-21T11:20:14;17.10;67.00
26954;DHT22;14508;50.924;11.600;2022-09-21T11:22:48;16.70;68.40
26954;DHT22;14508;50.924;11.600;2022-09-21T11:25:27;16.40;70.60
26954;DHT22;14508;50.924;11.600;2022-09-21T11:28:00;16.20;72.10
26954;DHT22;14508;50.924;11.600;2022-09-21T11:30:36;16.30;72.70
26954;DHT22;14508;50.924;11.600;2022-09-21T11:33:17;16.50;72.40
26954;DHT22;14508;50.924;11.600;2022-09-21T11:35:55;16.80;72.00
26954;DHT22;14508;50.924;11.600;2022-09-21T11:38:38;17.00;68.80
26954;DHT22;14508;50.924;11.600;2022-09-21T11:41:18;17.10;66.10
26954;DHT22;14508;50.924;11.600;2022-09-21T11:43:59;17.20;64.50
26954;DHT22;14508;50.924;11.600;2022-09-21T11:46:33;17.30;62.70
26954;DHT22;14508;50.924;11.600;2022-09-21T11:49:16;17.30;63.30
26954;DHT22;14508;50.924;11.600;2022-09-21T11:51:58;17.40;63.70
26954;DHT22;14508;50.924;11.600;2022-09-21T11:54:55;17.40;63.00
26954;DHT22;14508;50.924;11.600;2022-09-21T11:57:27;17.50;62.70
26954;DHT22;14508;50.924;11.600;2022-09-21T12:00:06;17.50;62.10
26954;DHT22;14508;50.924;11.600;2022-09-21T12:02:53;17.60;62.00
26954;DHT22;14508;50.924;11.600;2022-09-21T12:05:30;17.70;60.70
26954;DHT22;14508;50.924;11.600;2022-09-21T12:08:22;17.70;60.00
26954;DHT22;14508;50.924;11.600;2022-09-21T12:10:58;17.70;59.70
26954;DHT22;14508;50.924;11.600;2022-09-21T12:13:34;17.80;59.90
26954;DHT22;14508;50.924;11.600;2022-09-21T12:16:09;17.90;58.70
26954;DHT22;14508;50.924;11.600;2022-09-21T12:18:43;18.10;58.70
26954;DHT22;14508;50.924;11.600;2022-09-21T12:21:15;18.10;57.20
26954;DHT22;14508;50.924;11.600;2022-09-21T12:23:47;17.90;57.00
26954;DHT22;14508;50.924;11.600;2022-09-21T12:26:19;17.60;57.90
26954;DHT22;14508;50.924;11.600;2022-09-21T12:28:51;17.40;58.70
26954;DHT22;14508;50.924;11.600;2022-09-21T12:31:23;17.30;58.70
26954;DHT22;14508;50.924;11.600;2022-09-21T12:33:56;17.20;58.30
26954;DHT22;14508;50.924;11.600;2022-09-21T12:36:28;17.30;58.60
26954;DHT22;14508;50.924;11.600;2022-09-21T12:39:02;17.40;58.40
26954;DHT22;14508;50.924;11.600;2022-09-21T12:41:36;17.50;58.30
26954;DHT22;14508;50.924;11.600;2022-09-21T12:44:15;17.50;57.70
26954;DHT22;14508;50.924;11.600;2022-09-21T12:46:47;17.50;57.20
26954;DHT22;14508;50.924;11.600;2022-09-21T12:49:17;17.60;56.30
26954;DHT22;14508;50.924;11.600;2022-09-21T12:51:49;17.60;55.60
26954;DHT22;14508;50.924;11.600;2022-09-21T12:54:24;17.60;55.60
26954;DHT22;14508;50.924;11.600;2022-09-21T12:56:57;17.70;55.20
26954;DHT22;14508;50.924;11.600;2022-09-21T12:59:30;17.80;55.00
26954;DHT22;14508;50.924;11.600;2022-09-21T13:02:13;17.90;55.30
26954;DHT22;14508;50.924;11.600;2022-09-21T13:04:54;18.10;54.70
26954;DHT22;14508;50.924;11.600;2022-09-21T13:07:56;18.20;53.40
26954;DHT22;14508;50.924;11.600;2022-09-21T13:10:35;18.40;51.40
26954;DHT22;14508;50.924;11.600;2022-09-21T13:13:05;18.60;51.20
26954;DHT22;14508;50.924;11.600;2022-09-21T13:15:42;18.70;51.30
26954;DHT22;14508;50.924;11.600;2022-09-21T13:18:19;18.90;52.30
26954;DHT22;14508;50.924;11.600;2022-09-21T13:20:47;18.90;53.70
26954;DHT22;14508;50.924;11.600;2022-09-21T13:23:20;19.00;54.50
26954;DHT22;14508;50.924;11.600;2022-09-21T13:25:57;19.10;55.20
26954;DHT22;14508;50.924;11.600;2022-09-21T13:28:39;19.20;55.50
26954;DHT22;14508;50.924;11.600;2022-09-21T13:31:31;19.10;54.80
26954;DHT22;14508;50.924;11.600;2022-09-21T13:34:20;19.00;55.60
26954;DHT22;14508;50.924;11.600;2022-09-21T13:43:15;18.90;55.50
26954;DHT22;14508;50.924;11.600;2022-09-21T13:45:52;19.00;55.90
26954;DHT22;14508;50.924;11.600;2022-09-21T13:48:21;18.90;55.40
26954;DHT22;14508;50.924;11.600;2022-09-21T13:50:55;18.70;55.60
26954;DHT22;14508;50.924;11.600;2022-09-21T13:53:27;18.60;56.00
26954;DHT22;14508;50.924;11.600;2022-09-21T13:55:59;18.60;55.90
26954;DHT22;14508;50.924;11.600;2022-09-21T13:58:29;18.60;55.70
26954;DHT22;14508;50.924;11.600;2022-09-21T14:00:59;18.60;55.30
26954;DHT22;14508;50.924;11.600;2022-09-21T14:03:32;18.50;55.20
26954;DHT22;14508;50.924;11.600;2022-09-21T14:06:05;18.50;54.50
26954;DHT22;14508;50.924;11.600;2022-09-21T14:08:35;18.30;53.50
26954;DHT22;14508;50.924;11.600;2022-09-21T14:11:04;18.10;54.50
26954;DHT22;14508;50.924;11.600;2022-09-21T14:13:34;17.80;55.10
26954;DHT22;14508;50.924;11.600;2022-09-21T14:16:24;17.60;55.60
26954;DHT22;14508;50.924;11.600;2022-09-21T14:18:51;17.40;55.80
26954;DHT22;14508;50.924;11.600;2022-09-21T14:21:20;17.30;55.90
26954;DHT22;14508;50.924;11.600;2022-09-21T14:24:17;17.20;56.30
26954;DHT22;14508;50.924;11.600;2022-09-21T14:26:50;17.20;56.60
26954;DHT22;14508;50.924;11.600;2022-09-21T14:29:21;17.10;56.80
26954;DHT22;14508;50.924;11.600;2022-09-21T14:31:54;17.10;56.00
26954;DHT22;14508;50.924;11.600;2022-09-21T14:34:24;17.20;56.30
26954;DHT22;14508;50.924;11.600;2022-09-21T14:36:55;17.20;56.30
26954;DHT22;14508;50.924;11.600;2022-09-21T14:39:29;17.20;56.40
26954;DHT22;14508;50.924;11.600;2022-09-21T14:42:00;17.30;56.20
26954;DHT22;14508;50.924;11.600;2022-09-21T14:44:31;17.30;56.20
26954;DHT22;14508;50.924;11.600;2022-09-21T14:47:15;17.30;56.10
26954;DHT22;14508;50.924;11.600;2022-09-21T14:53:11;17.40;56.50
26954;DHT22;14508;50.924;11.600;2022-09-21T14:56:01;17.50;56.60
26954;DHT22;14508;50.924;11.600;2022-09-21T14:58:41;17.50;56.60
26954;DHT22;14508;50.924;11.600;2022-09-21T15:01:35;17.50;56.70
26954;DHT22;14508;50.924;11.600;2022-09-21T15:04:19;17.50;57.10
26954;DHT22;14508;50.924;11.600;2022-09-21T15:06:53;17.30;57.30
26954;DHT22;14508;50.924;11.600;2022-09-21T15:10:04;17.20;57.90
26954;DHT22;14508;50.924;11.600;2022-09-21T15:12:54;17.20;58.80
26954;DHT22;14508;50.924;11.600;2022-09-21T15:15:33;17.20;59.20
26954;DHT22;14508;50.924;11.600;2022-09-21T15:18:14;17.30;58.90
26954;DHT22;14508;50.924;11.600;2022-09-21T15:20:42;17.30;58.70
26954;DHT22;14508;50.924;11.600;2022-09-21T15:23:17;17.20;58.70
26954;DHT22;14508;50.924;11.600;2022-09-21T15:25:53;17.20;58.70
26954;DHT22;14508;50.924;11.600;2022-09-21T15:28:24;17.30;58.90
26954;DHT22;14508;50.924;11.600;2022-09-21T15:30:55;17.40;58.70
26954;DHT22;14508;50.924;11.600;2022-09-21T15:33:24;17.40;58.00
26954;DHT22;14508;50.924;11.600;2022-09-21T15:35:51;17.40;57.40
26954;DHT22;14508;50.924;11.600;2022-09-21T15:38:26;17.40;58.00
26954;DHT22;14508;50.924;11.600;2022-09-21T15:40:55;17.40;58.20
26954;DHT22;14508;50.924;11.600;2022-09-21T15:43:22;17.40;57.90
26954;DHT22;14508;50.924;11.600;2022-09-21T15:45:51;17.30;58.40
26954;DHT22;14508;50.924;11.600;2022-09-21T15:48:19;17.20;59.00
26954;DHT22;14508;50.924;11.600;2022-09-21T15:50:49;17.10;59.40
26954;DHT22;14508;50.924;11.600;2022-09-21T15:53:20;16.90;59.90
26954;DHT22;14508;50.924;11.600;2022-09-21T15:55:48;16.80;60.60
26954;DHT22;14508;50.924;11.600;2022-09-21T15:58:24;16.70;60.20
26954;DHT22;14508;50.924;11.600;2022-09-21T16:00:54;16.60;60.50
26954;DHT22;14508;50.924;11.600;2022-09-21T16:03:23;16.50;61.10
26954;DHT22;14508;50.924;11.600;2022-09-21T16:05:53;16.50;61.80